Lincoln Airport
KLNK : rendu visible

Aérodrome :











RETROUVEZ-NOUS SUR...

 
LOGIN :

S'inscrire | Disclaimer

   EN    FR    IT 

 









Légende :    VFR   VFR Marginal   IFR   IFR Intensif   IFR Très Intensif
Visi : 
Plafond : 
>= 8 km
>= 3000ft
5 à 8 km
1000 à 3000 ft
1500m à 5 km
500 à 1000 ft
800 à 1500m
200 à 500 ft
< 800m
< 200 ft
Symboles :   Orages  Brouillard  Fortes neiges  Fortes précipitations  Vent > 20 kt







- Altitude de l'aérodrome : 1219 ft
- Code IATA : LNK


KLNK - Lincoln

DERNIER METAR :
  • 240530Z AUTO 07012KT 7SM VCTS RA BKN009 BKN041 OVC120 13/12 A2996 RMK AO2 LTG DSNT N-SE PRESFR P0004 T01330122

METARs EXPIRÉS :
  • 240459Z AUTO 05015G22KT 7SM VCTS RA SCT009 BKN038 OVC095 13/12 A3000 RMK AO2 LTG DSNT ALQDS P0001 T01330117
  • 240448Z AUTO VRB05KT 4SM RA BR SCT007 BKN023 OVC037 13/12 A3000 RMK AO2 LTG DSNT ALQDS P0038
  • 240435Z AUTO 14007KT 2 1/2SM VCTS +RA BR SCT023 SCT027 OVC032 13/12 A3005 RMK AO2 LTG DSNT ALQDS P0034 T01330122
  • 240423Z AUTO VRB03KT 1 1/2SM R36/6000VP6000FT VCTS +RA BR FEW022 BKN029 OVC034 13/12 A3002 RMK AO2 LTG DSNT ALQDS PRESRR P0012 T01280117
  • 240420Z AUTO 05005KT 2 1/2SM R36/6000VP6000FT VCTS +RA BR FEW020 SCT029 OVC034 13/12 A2999 RMK AO2 VIS 1V5 LTG DSNT ALQDS P0006 T01330117
  • 240408Z AUTO 06010KT 9SM VCTS -RA BKN028 OVC036 13/12 A2998 RMK AO2 LTG DSNT ALQDS P0001 T01330117
  • 240354Z AUTO 04012G18KT 10SM -RA FEW030 OVC034 13/12 A2997 RMK AO2 LTG DSNT ALQDS TSB29E44 PRESFR SLP145 P0011 T01330117
  • 240332Z AUTO 01010KT 3SM TSRA BR OVC032 13/11 A3002 RMK AO2 LTG DSNT ALQDS TSB29 P0010 T01330111
  • 240303Z AUTO 03008G17KT 9SM VCTS -RA OVC032 13/11 A2998 RMK AO2 LTG DSNT ALQDS P0002 T01330111
  • 240254Z AUTO 05011KT 10SM -RA BKN034 BKN044 OVC060 14/11 A2997 RMK AO2 LTG DSNT ALQDS TSB0157E19 SLP146 P0009 60009 T01390111 56010
  • 240240Z 08009KT 9SM -RA SCT034 BKN041 BKN060 14/11 A2998 RMK AO2 LTG DSNT ALQDS TSB0157E19 P0007 T01390106

TAF KLNK
Valide du 24 à 06h jusqu'au 25 à 06h UTC


240520Z 2406/2506 12010KT 4SM -TSRA OVC015CB
FM240900 15007KT 6SM -SHRA BR OVC015 WS020/20040KT
TEMPO 2409/2411 4SM TSRA BR OVC015CB
FM241100 18007KT P6SM OVC010
FM241400 23008KT P6SM BKN020
FM241800 23007KT P6SM SCT120
FIR KZMP / Amérique du Nord



MET'MAP, la Météo Aéronautique d'un coup d'oeil ! - Copyright ORBIFLY Décembre 2007 - Disclaimer

ORBIFLY MET'MAP TEAM :

Programmation & Développement : Alexandra Zaïnal
Conception & Développement : Baudouin d'Aumeries
Co-Programmation & Développement : Marc-Olivier Méhu
Soutien technique & logistique : Manuel Goepfert

Contact : metmap@orbifly.com




SOURCES & CREDITS :

   NOAA       Earth
Advisory